createdAt,value
2022-09-16T08:15:10.607Z,12.43
2022-09-16T08:17:37.551Z,10.60
2022-09-16T08:20:07.327Z,12.00
2022-09-16T08:22:35.920Z,10.07
2022-09-16T08:25:03.287Z,10.53
2022-09-16T08:27:30.222Z,10.00
2022-09-16T08:29:57.175Z,10.20
2022-09-16T08:32:24.278Z,12.27
2022-09-16T08:34:51.751Z,9.27
2022-09-16T08:37:18.740Z,10.30
2022-09-16T08:39:48.840Z,11.17
2022-09-16T08:42:53.853Z,15.13
2022-09-16T08:45:52.123Z,11.00
2022-09-16T08:48:30.303Z,10.07
2022-09-16T08:51:00.514Z,11.07
2022-09-16T08:53:42.808Z,10.37
2022-09-16T08:56:18.402Z,11.13
2022-09-16T08:58:49.955Z,10.33
2022-09-16T09:01:37.164Z,9.40
2022-09-16T09:04:05.295Z,8.67
2022-09-16T09:07:09.130Z,8.67
2022-09-16T09:10:01.165Z,7.97
2022-09-16T09:12:42.181Z,8.80
2022-09-16T09:15:26.094Z,8.20
2022-09-16T09:18:38.675Z,7.73
2022-09-16T09:21:27.386Z,8.87
2022-09-16T09:24:29.225Z,7.47
2022-09-16T09:27:08.913Z,8.47
2022-09-16T09:30:09.022Z,6.83
2022-09-16T09:33:04.748Z,7.13
2022-09-16T09:36:20.760Z,8.10
2022-09-16T09:39:06.918Z,6.60
2022-09-16T09:42:04.794Z,7.00
2022-09-16T09:44:58.442Z,7.57
2022-09-16T09:47:56.601Z,8.50
2022-09-16T09:50:52.207Z,9.87
2022-09-16T09:53:45.057Z,8.50
2022-09-16T09:56:37.475Z,15.13
2022-09-16T09:59:45.079Z,8.57
2022-09-16T10:02:18.829Z,10.47
2022-09-16T10:04:46.242Z,10.80
2022-09-16T10:07:19.207Z,8.90
2022-09-16T10:09:57.290Z,7.70
2022-09-16T10:12:35.375Z,8.23
2022-09-16T10:15:02.930Z,6.97
2022-09-16T10:17:33.459Z,8.40
2022-09-16T10:20:10.585Z,10.57
2022-09-16T10:22:37.767Z,10.60
2022-09-16T10:25:26.941Z,10.23
2022-09-16T10:28:01.505Z,9.23
2022-09-16T10:30:32.966Z,8.37
2022-09-16T10:33:06.653Z,10.27
2022-09-16T10:35:39.457Z,8.90
2022-09-16T10:38:13.256Z,9.63
2022-09-16T10:40:54.038Z,10.33
2022-09-16T10:43:22.699Z,10.23
2022-09-16T10:45:53.426Z,10.67
2022-09-16T10:48:26.663Z,11.07
2022-09-16T10:51:05.680Z,13.47
2022-09-16T10:53:40.987Z,11.53
2022-09-16T10:56:23.048Z,12.67
2022-09-16T10:59:06.467Z,12.30
2022-09-16T11:02:01.554Z,11.90
2022-09-16T11:04:38.011Z,11.37
2022-09-16T11:07:22.014Z,11.33
2022-09-16T11:10:36.502Z,14.60
2022-09-16T11:13:39.443Z,11.33
2022-09-16T11:16:39.544Z,10.07
2022-09-16T11:19:34.496Z,10.00
2022-09-16T11:22:13.980Z,9.30
2022-09-16T11:25:18.317Z,11.90
2022-09-16T11:28:00.141Z,10.13
2022-09-16T11:30:38.527Z,9.73
2022-09-16T11:33:30.517Z,8.13
2022-09-16T11:36:34.973Z,9.20
2022-09-16T11:39:36.785Z,9.17
2022-09-16T11:42:44.883Z,8.93
2022-09-16T11:45:39.870Z,10.70
2022-09-16T11:48:34.395Z,14.93
2022-09-16T11:51:38.579Z,9.07
2022-09-16T11:54:11.562Z,9.00
2022-09-16T11:56:48.364Z,9.10
2022-09-16T11:59:38.685Z,11.70
2022-09-16T12:02:30.180Z,10.13
2022-09-16T12:05:17.834Z,9.87
2022-09-16T12:07:57.094Z,11.87
2022-09-16T12:10:33.127Z,12.10
2022-09-16T12:13:15.577Z,13.17
2022-09-16T12:15:55.449Z,11.60
2022-09-16T12:18:38.815Z,12.07
2022-09-16T12:21:26.872Z,12.60
2022-09-16T12:24:04.515Z,10.93
2022-09-16T12:26:41.763Z,12.13
2022-09-16T12:29:38.828Z,12.53
2022-09-16T12:32:13.910Z,11.73
2022-09-16T12:35:10.759Z,12.60
2022-09-16T12:37:49.751Z,10.00
2022-09-16T12:40:30.068Z,9.63
2022-09-16T12:43:29.350Z,10.60
2022-09-16T12:46:14.350Z,10.13
2022-09-16T12:49:06.980Z,10.10
2022-09-16T12:51:50.242Z,11.13
2022-09-16T12:55:07.092Z,11.20
2022-09-16T12:58:36.640Z,15.90
2022-09-16T13:01:38.714Z,11.33
2022-09-16T13:04:44.674Z,10.97
2022-09-16T13:07:33.107Z,9.80
2022-09-16T13:13:37.020Z,14.30
2022-09-16T13:16:07.622Z,11.17
2022-09-16T13:18:50.895Z,14.10
2022-09-16T13:21:39.477Z,12.70
2022-09-16T13:24:31.650Z,12.13
2022-09-16T13:26:58.960Z,12.53
2022-09-16T13:29:44.003Z,12.63
2022-09-16T13:32:59.647Z,13.00
2022-09-16T13:35:32.726Z,12.27
2022-09-16T13:38:12.825Z,14.30
2022-09-16T13:40:39.971Z,13.70
2022-09-16T13:43:09.839Z,12.90
2022-09-16T13:45:44.921Z,12.33
2022-09-16T13:48:24.341Z,13.33
2022-09-16T13:50:57.657Z,13.33
2022-09-16T13:53:27.650Z,14.50
2022-09-16T13:56:13.921Z,11.77
2022-09-16T13:59:18.119Z,10.47
2022-09-16T14:02:29.569Z,7.40
2022-09-16T14:05:02.345Z,8.27
2022-09-16T14:08:12.310Z,6.40
2022-09-16T14:11:12.531Z,6.27
2022-09-16T14:13:48.551Z,5.90
2022-09-16T14:16:28.965Z,6.43
2022-09-16T14:19:25.052Z,7.60
2022-09-16T14:22:28.441Z,7.63
2022-09-16T14:25:06.898Z,8.30
2022-09-16T14:27:44.272Z,7.00
2022-09-16T14:30:19.772Z,7.40
2022-09-16T14:32:48.537Z,7.33
2022-09-16T14:35:22.636Z,7.27
2022-09-16T14:37:55.797Z,9.60
2022-09-16T14:40:25.554Z,8.80
2022-09-16T14:43:01.798Z,10.43
2022-09-16T14:45:31.632Z,9.37
2022-09-16T14:48:03.103Z,8.17
2022-09-16T14:50:40.903Z,8.27
2022-09-16T14:53:36.824Z,8.80
2022-09-16T14:56:05.722Z,6.10
2022-09-16T14:58:34.255Z,5.73
2022-09-16T15:01:28.711Z,7.03
2022-09-16T15:04:07.610Z,5.77
2022-09-16T15:06:47.042Z,4.60
2022-09-16T15:09:31.607Z,4.40
2022-09-16T15:12:01.474Z,4.70
2022-09-16T15:14:28.692Z,4.90
2022-09-16T15:17:03.200Z,5.80
2022-09-16T15:19:38.304Z,4.83
2022-09-16T15:22:11.216Z,4.23
2022-09-16T15:24:41.447Z,3.23
2022-09-16T15:27:09.947Z,5.37
2022-09-16T15:29:50.598Z,3.37
2022-09-16T15:32:27.767Z,5.17
2022-09-16T15:35:28.761Z,5.50
2022-09-16T15:37:56.071Z,4.13
2022-09-16T15:40:25.947Z,4.83
2022-09-16T15:43:29.551Z,6.10
2022-09-16T15:46:25.983Z,5.73
2022-09-16T15:49:02.011Z,3.60
2022-09-16T15:51:48.156Z,6.50
2022-09-16T15:54:32.767Z,5.60
2022-09-16T15:57:22.528Z,5.30
2022-09-16T16:00:16.250Z,5.00
2022-09-16T16:03:01.737Z,6.00
2022-09-16T16:05:32.088Z,5.57
2022-09-16T16:08:09.094Z,5.13
2022-09-16T16:10:36.880Z,5.27
2022-09-16T16:13:06.741Z,4.13
2022-09-16T16:15:37.082Z,5.20
2022-09-16T16:18:07.797Z,5.37
2022-09-16T16:20:37.254Z,5.77
2022-09-16T16:23:04.216Z,8.17
2022-09-16T16:25:31.191Z,10.60
2022-09-16T16:27:58.562Z,8.97
2022-09-16T16:30:25.799Z,6.63
2022-09-16T16:32:52.806Z,5.17
2022-09-16T16:35:19.833Z,5.20
2022-09-16T16:37:47.754Z,4.80
2022-09-16T16:40:16.053Z,7.70
2022-09-16T16:42:44.628Z,5.10
2022-09-16T16:45:15.029Z,7.10
2022-09-16T16:47:44.185Z,10.30
2022-09-16T16:50:11.633Z,7.30
2022-09-16T16:52:39.536Z,7.73
2022-09-16T16:55:07.850Z,7.57
2022-09-16T16:57:34.901Z,6.57
2022-09-16T17:00:02.251Z,8.27
2022-09-16T17:02:29.172Z,8.77
2022-09-16T17:04:56.194Z,9.00
2022-09-16T17:07:27.652Z,6.60
2022-09-16T17:09:57.615Z,4.33
2022-09-16T17:12:26.308Z,5.13
2022-09-16T17:14:53.291Z,4.67
2022-09-16T17:17:20.387Z,4.87
2022-09-16T17:19:47.343Z,5.17
2022-09-16T17:22:14.703Z,5.30
2022-09-16T17:24:41.698Z,4.50
2022-09-16T17:27:08.837Z,4.90
2022-09-16T17:29:35.869Z,7.73
2022-09-16T17:32:03.467Z,4.50
2022-09-16T17:34:31.420Z,4.97
2022-09-16T17:36:58.917Z,4.27
2022-09-16T17:39:26.602Z,5.17
2022-09-16T17:41:56.829Z,5.53
2022-09-16T17:44:25.161Z,4.90
2022-09-16T17:46:52.438Z,4.77
2022-09-16T17:49:24.093Z,4.87
2022-09-16T17:51:53.821Z,4.80
2022-09-16T17:54:22.091Z,4.93
2022-09-16T17:56:50.327Z,4.77
2022-09-16T17:59:19.554Z,8.17
2022-09-16T18:01:46.771Z,5.10
2022-09-16T18:04:13.943Z,5.60
2022-09-16T18:06:45.297Z,4.97
2022-09-16T18:09:13.386Z,5.07
2022-09-16T18:11:41.045Z,5.53
2022-09-16T18:14:11.790Z,4.33
2022-09-16T18:16:54.895Z,4.63
2022-09-16T18:19:33.158Z,4.90
2022-09-16T18:22:02.949Z,4.60
2022-09-16T18:24:36.779Z,5.20
2022-09-16T18:27:06.421Z,5.97
2022-09-16T18:29:33.896Z,6.67
2022-09-16T18:32:02.483Z,6.53
2022-09-16T18:34:33.407Z,6.30
2022-09-16T18:37:06.537Z,6.00
2022-09-16T18:39:34.576Z,6.90
2022-09-16T18:42:02.908Z,7.57
2022-09-16T18:44:30.872Z,7.93
2022-09-16T18:46:59.733Z,7.43
2022-09-16T18:49:29.787Z,8.37
2022-09-16T18:51:59.190Z,8.17
2022-09-16T18:54:33.314Z,8.17
2022-09-16T18:57:14.365Z,8.27
2022-09-16T18:59:47.601Z,5.80
2022-09-16T19:02:24.377Z,6.80
2022-09-16T19:04:53.798Z,6.53
2022-09-16T19:07:27.974Z,6.20
2022-09-16T19:09:55.641Z,7.17
2022-09-16T19:12:25.576Z,9.60
2022-09-16T19:14:56.152Z,5.13
2022-09-16T19:17:23.792Z,5.73
2022-09-16T19:19:57.640Z,5.60
2022-09-16T19:22:26.051Z,5.67
2022-09-16T19:24:55.067Z,8.10
2022-09-16T19:27:24.890Z,5.90
2022-09-16T19:29:55.706Z,8.53
2022-09-16T19:32:30.054Z,5.20
2022-09-16T19:34:59.131Z,4.90
2022-09-16T19:37:27.429Z,5.87
2022-09-16T19:39:54.413Z,5.83
2022-09-16T19:42:23.086Z,5.47
2022-09-16T19:44:52.262Z,4.43
2022-09-16T19:47:20.086Z,5.17
2022-09-16T19:49:54.701Z,4.80
2022-09-16T19:52:26.172Z,5.70
2022-09-16T19:54:54.582Z,4.80
2022-09-16T19:57:23.306Z,4.77
2022-09-16T19:59:52.108Z,6.20
2022-09-16T20:02:19.215Z,6.60
2022-09-16T20:04:46.966Z,5.10
2022-09-16T20:07:17.359Z,4.83
2022-09-16T20:09:46.949Z,6.93
2022-09-16T20:12:15.097Z,6.07
2022-09-16T20:14:42.086Z,5.60
2022-09-16T20:17:09.096Z,5.20
2022-09-16T20:19:36.051Z,4.43
2022-09-16T20:22:03.217Z,6.20
2022-09-16T20:24:30.278Z,4.93
2022-09-16T20:26:57.846Z,5.40
2022-09-16T20:29:25.343Z,6.57
2022-09-16T20:31:53.753Z,5.40
2022-09-16T20:34:23.298Z,4.70
2022-09-16T20:36:51.129Z,4.67
2022-09-16T20:39:18.509Z,4.90
2022-09-16T20:41:50.027Z,4.90
2022-09-16T20:44:17.131Z,5.37
2022-09-16T20:46:44.338Z,4.63
2022-09-16T20:49:16.098Z,5.07
2022-09-16T20:51:43.646Z,5.93
2022-09-16T20:54:14.411Z,5.13
2022-09-16T20:56:46.173Z,5.00
2022-09-16T20:59:16.376Z,4.60
2022-09-16T21:01:43.850Z,4.10
2022-09-16T21:04:14.962Z,4.93
2022-09-16T21:06:42.417Z,5.50
2022-09-16T21:09:13.706Z,4.90
2022-09-16T21:11:45.253Z,5.03
2022-09-16T21:14:16.440Z,5.00
2022-09-16T21:16:45.802Z,5.30
2022-09-16T21:19:14.364Z,7.47
2022-09-16T21:21:44.741Z,4.93
2022-09-16T21:24:13.393Z,5.90
2022-09-16T21:26:41.554Z,5.13
2022-09-16T21:29:13.363Z,4.37
2022-09-16T21:31:42.614Z,5.50
2022-09-16T21:34:21.473Z,4.50
2022-09-16T21:36:50.817Z,4.37
2022-09-16T21:39:20.448Z,4.77
2022-09-16T21:41:49.173Z,4.80
2022-09-16T21:44:17.206Z,5.07
2022-09-16T21:46:46.646Z,4.17
2022-09-16T21:49:23.396Z,4.57
2022-09-16T21:51:54.040Z,4.40
2022-09-16T21:54:21.478Z,5.37
2022-09-16T21:56:50.348Z,4.70
2022-09-16T21:59:19.995Z,6.33
2022-09-16T22:01:49.645Z,4.60
2022-09-16T22:04:23.803Z,5.03
2022-09-16T22:06:54.913Z,4.77
2022-09-16T22:09:21.926Z,4.43
2022-09-16T22:11:49.546Z,4.87
2022-09-16T22:14:17.512Z,7.70
2022-09-16T22:16:45.143Z,5.17
2022-09-16T22:19:16.875Z,4.53
2022-09-16T22:21:47.300Z,4.83
2022-09-16T22:24:16.437Z,5.10
2022-09-16T22:26:44.008Z,4.80
2022-09-16T22:29:13.019Z,7.30
2022-09-16T22:31:44.142Z,5.43
2022-09-16T22:34:11.492Z,5.70
2022-09-16T22:36:39.234Z,6.47
2022-09-16T22:39:12.908Z,6.17
2022-09-16T22:41:39.917Z,6.37
2022-09-16T22:44:06.940Z,6.70
2022-09-16T22:46:40.318Z,5.17
2022-09-16T22:49:07.562Z,5.70
2022-09-16T22:51:34.571Z,6.23
2022-09-16T22:54:02.525Z,5.33
2022-09-16T22:56:33.543Z,6.03
2022-09-16T22:59:06.684Z,6.87
2022-09-16T23:01:39.611Z,5.87
2022-09-16T23:04:09.356Z,5.10
2022-09-16T23:06:38.892Z,6.17
2022-09-16T23:09:08.390Z,6.10
2022-09-16T23:11:36.438Z,5.87
2022-09-16T23:14:05.618Z,6.93
2022-09-16T23:16:36.649Z,6.40
2022-09-16T23:19:11.857Z,5.60
2022-09-16T23:21:40.570Z,5.60
2022-09-16T23:24:11.965Z,7.13
2022-09-16T23:26:40.412Z,6.63
2022-09-16T23:29:10.087Z,5.30
2022-09-16T23:31:43.366Z,5.27
2022-09-16T23:34:22.215Z,5.20
2022-09-16T23:36:50.415Z,5.80
2022-09-16T23:39:18.429Z,6.13
2022-09-16T23:41:46.912Z,6.60
2022-09-16T23:44:16.035Z,6.43
2022-09-16T23:46:44.409Z,6.70
2022-09-16T23:49:12.290Z,9.00
2022-09-16T23:51:39.343Z,5.83
2022-09-16T23:54:06.583Z,6.87
2022-09-16T23:56:33.522Z,4.10
2022-09-16T23:59:01.223Z,3.60
